sensor_id;sensor_type;location;lat;lon;timestamp;P1;durP1;ratioP1;P2;durP2;ratioP2
44508;SDS011;30214;52.246;14.408;2023-04-06T00:01:09;5.03;;;2.08;;
44508;SDS011;30214;52.246;14.408;2023-04-06T00:03:39;3.38;;;1.83;;
44508;SDS011;30214;52.246;14.408;2023-04-06T00:06:07;2.75;;;1.60;;
44508;SDS011;30214;52.246;14.408;2023-04-06T00:08:35;3.10;;;1.70;;
44508;SDS011;30214;52.246;14.408;2023-04-06T00:11:02;3.88;;;1.45;;
44508;SDS011;30214;52.246;14.408;2023-04-06T00:13:29;3.65;;;1.70;;
44508;SDS011;30214;52.246;14.408;2023-04-06T00:15:56;3.70;;;1.60;;
44508;SDS011;30214;52.246;14.408;2023-04-06T00:18:24;3.40;;;1.90;;
44508;SDS011;30214;52.246;14.408;2023-04-06T00:20:51;3.03;;;1.63;;
44508;SDS011;30214;52.246;14.408;2023-04-06T00:23:18;5.95;;;1.88;;
44508;SDS011;30214;52.246;14.408;2023-04-06T00:25:47;5.15;;;2.30;;
44508;SDS011;30214;52.246;14.408;2023-04-06T00:28:14;3.63;;;2.20;;
44508;SDS011;30214;52.246;14.408;2023-04-06T00:30:41;4.00;;;2.45;;
44508;SDS011;30214;52.246;14.408;2023-04-06T00:33:13;4.00;;;2.00;;
44508;SDS011;30214;52.246;14.408;2023-04-06T00:35:40;4.60;;;2.22;;
44508;SDS011;30214;52.246;14.408;2023-04-06T00:38:08;4.57;;;2.15;;
44508;SDS011;30214;52.246;14.408;2023-04-06T00:40:36;3.42;;;2.13;;
44508;SDS011;30214;52.246;14.408;2023-04-06T00:43:06;4.25;;;2.30;;
44508;SDS011;30214;52.246;14.408;2023-04-06T00:45:35;5.53;;;2.47;;
44508;SDS011;30214;52.246;14.408;2023-04-06T00:48:03;4.70;;;2.85;;
44508;SDS011;30214;52.246;14.408;2023-04-06T00:50:31;7.13;;;3.13;;
44508;SDS011;30214;52.246;14.408;2023-04-06T00:52:59;5.63;;;3.17;;
44508;SDS011;30214;52.246;14.408;2023-04-06T00:55:28;7.68;;;3.20;;
44508;SDS011;30214;52.246;14.408;2023-04-06T00:57:57;9.93;;;3.70;;
44508;SDS011;30214;52.246;14.408;2023-04-06T01:00:30;7.55;;;3.67;;
44508;SDS011;30214;52.246;14.408;2023-04-06T01:15:20;8.85;;;4.55;;
44508;SDS011;30214;52.246;14.408;2023-04-06T01:17:52;6.10;;;3.90;;
44508;SDS011;30214;52.246;14.408;2023-04-06T01:20:19;7.68;;;4.40;;
44508;SDS011;30214;52.246;14.408;2023-04-06T01:22:47;7.60;;;4.82;;
44508;SDS011;30214;52.246;14.408;2023-04-06T01:25:15;8.32;;;4.97;;
44508;SDS011;30214;52.246;14.408;2023-04-06T01:28:09;10.73;;;5.30;;
44508;SDS011;30214;52.246;14.408;2023-04-06T01:30:52;9.75;;;5.35;;
44508;SDS011;30214;52.246;14.408;2023-04-06T01:33:39;9.60;;;4.88;;
44508;SDS011;30214;52.246;14.408;2023-04-06T01:36:11;7.78;;;4.90;;
44508;SDS011;30214;52.246;14.408;2023-04-06T01:38:39;7.88;;;4.82;;
44508;SDS011;30214;52.246;14.408;2023-04-06T01:41:07;9.23;;;4.97;;
44508;SDS011;30214;52.246;14.408;2023-04-06T01:43:46;9.20;;;5.65;;
44508;SDS011;30214;52.246;14.408;2023-04-06T01:46:15;8.57;;;4.82;;
44508;SDS011;30214;52.246;14.408;2023-04-06T01:48:44;12.57;;;5.18;;
44508;SDS011;30214;52.246;14.408;2023-04-06T01:51:31;7.25;;;4.80;;
44508;SDS011;30214;52.246;14.408;2023-04-06T01:54:02;10.00;;;5.20;;
44508;SDS011;30214;52.246;14.408;2023-04-06T01:56:58;8.15;;;5.15;;
44508;SDS011;30214;52.246;14.408;2023-04-06T01:59:32;8.18;;;5.07;;
44508;SDS011;30214;52.246;14.408;2023-04-06T02:02:04;6.90;;;4.32;;
44508;SDS011;30214;52.246;14.408;2023-04-06T02:04:34;10.15;;;4.32;;
44508;SDS011;30214;52.246;14.408;2023-04-06T02:07:10;6.82;;;4.47;;
44508;SDS011;30214;52.246;14.408;2023-04-06T02:09:39;11.60;;;4.30;;
44508;SDS011;30214;52.246;14.408;2023-04-06T02:12:11;6.97;;;4.32;;
44508;SDS011;30214;52.246;14.408;2023-04-06T02:14:38;6.65;;;4.13;;
44508;SDS011;30214;52.246;14.408;2023-04-06T02:17:06;6.07;;;3.80;;
44508;SDS011;30214;52.246;14.408;2023-04-06T02:19:33;6.13;;;3.47;;
44508;SDS011;30214;52.246;14.408;2023-04-06T02:22:00;11.52;;;4.43;;
44508;SDS011;30214;52.246;14.408;2023-04-06T02:24:27;7.63;;;3.97;;
44508;SDS011;30214;52.246;14.408;2023-04-06T02:26:55;7.43;;;4.28;;
44508;SDS011;30214;52.246;14.408;2023-04-06T02:29:23;7.85;;;4.32;;
44508;SDS011;30214;52.246;14.408;2023-04-06T02:31:50;7.47;;;4.15;;
44508;SDS011;30214;52.246;14.408;2023-04-06T02:34:18;7.68;;;4.60;;
44508;SDS011;30214;52.246;14.408;2023-04-06T02:36:49;8.23;;;4.35;;
44508;SDS011;30214;52.246;14.408;2023-04-06T02:39:16;9.60;;;4.18;;
44508;SDS011;30214;52.246;14.408;2023-04-06T02:41:44;7.78;;;4.30;;
44508;SDS011;30214;52.246;14.408;2023-04-06T02:44:15;7.45;;;3.80;;
44508;SDS011;30214;52.246;14.408;2023-04-06T02:46:43;8.60;;;4.10;;
44508;SDS011;30214;52.246;14.408;2023-04-06T02:49:11;10.63;;;4.68;;
44508;SDS011;30214;52.246;14.408;2023-04-06T02:51:38;6.85;;;4.70;;
44508;SDS011;30214;52.246;14.408;2023-04-06T02:54:32;13.43;;;5.35;;
44508;SDS011;30214;52.246;14.408;2023-04-06T02:57:01;8.10;;;4.90;;
44508;SDS011;30214;52.246;14.408;2023-04-06T02:59:37;8.88;;;4.88;;
44508;SDS011;30214;52.246;14.408;2023-04-06T03:02:18;11.00;;;5.00;;
44508;SDS011;30214;52.246;14.408;2023-04-06T03:04:46;8.35;;;4.78;;
44508;SDS011;30214;52.246;14.408;2023-04-06T03:07:25;9.55;;;4.75;;
44508;SDS011;30214;52.246;14.408;2023-04-06T03:09:52;9.68;;;4.50;;
44508;SDS011;30214;52.246;14.408;2023-04-06T03:12:20;10.38;;;5.13;;
44508;SDS011;30214;52.246;14.408;2023-04-06T03:15:12;7.47;;;4.43;;
44508;SDS011;30214;52.246;14.408;2023-04-06T03:17:44;9.07;;;4.65;;
44508;SDS011;30214;52.246;14.408;2023-04-06T03:20:25;10.20;;;5.00;;
44508;SDS011;30214;52.246;14.408;2023-04-06T03:22:52;8.25;;;4.65;;
44508;SDS011;30214;52.246;14.408;2023-04-06T03:25:24;8.48;;;5.25;;
44508;SDS011;30214;52.246;14.408;2023-04-06T03:27:52;9.18;;;5.10;;
44508;SDS011;30214;52.246;14.408;2023-04-06T03:30:21;8.07;;;4.80;;
44508;SDS011;30214;52.246;14.408;2023-04-06T03:32:48;10.15;;;5.53;;
44508;SDS011;30214;52.246;14.408;2023-04-06T03:35:15;11.65;;;5.45;;
44508;SDS011;30214;52.246;14.408;2023-04-06T03:37:42;10.88;;;5.57;;
44508;SDS011;30214;52.246;14.408;2023-04-06T03:40:10;10.32;;;4.90;;
44508;SDS011;30214;52.246;14.408;2023-04-06T03:42:37;10.07;;;5.40;;
44508;SDS011;30214;52.246;14.408;2023-04-06T03:45:10;10.70;;;5.00;;
44508;SDS011;30214;52.246;14.408;2023-04-06T03:47:44;9.18;;;4.68;;
44508;SDS011;30214;52.246;14.408;2023-04-06T03:50:12;10.05;;;5.20;;
44508;SDS011;30214;52.246;14.408;2023-04-06T03:52:39;11.73;;;5.82;;
44508;SDS011;30214;52.246;14.408;2023-04-06T03:55:07;10.95;;;5.47;;
44508;SDS011;30214;52.246;14.408;2023-04-06T03:57:35;9.90;;;5.65;;
44508;SDS011;30214;52.246;14.408;2023-04-06T04:00:03;12.27;;;5.82;;
44508;SDS011;30214;52.246;14.408;2023-04-06T04:02:37;7.70;;;5.13;;
44508;SDS011;30214;52.246;14.408;2023-04-06T04:05:07;17.02;;;6.90;;
44508;SDS011;30214;52.246;14.408;2023-04-06T04:07:36;13.63;;;6.10;;
44508;SDS011;30214;52.246;14.408;2023-04-06T04:10:03;24.70;;;6.60;;
44508;SDS011;30214;52.246;14.408;2023-04-06T04:12:31;15.30;;;6.43;;
44508;SDS011;30214;52.246;14.408;2023-04-06T04:15:01;14.05;;;7.60;;
44508;SDS011;30214;52.246;14.408;2023-04-06T04:17:29;16.02;;;7.85;;
44508;SDS011;30214;52.246;14.408;2023-04-06T04:19:56;17.90;;;7.70;;
44508;SDS011;30214;52.246;14.408;2023-04-06T04:22:25;14.18;;;8.07;;
44508;SDS011;30214;52.246;14.408;2023-04-06T04:24:54;14.48;;;7.57;;
44508;SDS011;30214;52.246;14.408;2023-04-06T04:27:21;14.07;;;7.65;;
44508;SDS011;30214;52.246;14.408;2023-04-06T04:29:49;19.30;;;9.43;;
44508;SDS011;30214;52.246;14.408;2023-04-06T04:32:16;18.05;;;8.77;;
44508;SDS011;30214;52.246;14.408;2023-04-06T04:34:45;12.32;;;8.45;;
44508;SDS011;30214;52.246;14.408;2023-04-06T04:37:23;15.88;;;9.48;;
44508;SDS011;30214;52.246;14.408;2023-04-06T04:39:55;22.70;;;9.75;;
44508;SDS011;30214;52.246;14.408;2023-04-06T04:42:22;22.23;;;10.60;;
44508;SDS011;30214;52.246;14.408;2023-04-06T04:44:52;24.05;;;11.77;;
44508;SDS011;30214;52.246;14.408;2023-04-06T04:47:32;19.67;;;10.48;;
44508;SDS011;30214;52.246;14.408;2023-04-06T04:49:59;26.45;;;11.18;;
44508;SDS011;30214;52.246;14.408;2023-04-06T04:52:28;24.63;;;12.63;;
44508;SDS011;30214;52.246;14.408;2023-04-06T04:55:14;23.48;;;12.60;;
44508;SDS011;30214;52.246;14.408;2023-04-06T04:57:45;24.85;;;12.35;;
44508;SDS011;30214;52.246;14.408;2023-04-06T05:00:13;24.95;;;11.60;;
44508;SDS011;30214;52.246;14.408;2023-04-06T05:02:43;24.40;;;11.30;;
44508;SDS011;30214;52.246;14.408;2023-04-06T05:05:14;23.85;;;11.32;;
44508;SDS011;30214;52.246;14.408;2023-04-06T05:07:42;26.15;;;12.52;;
44508;SDS011;30214;52.246;14.408;2023-04-06T05:10:18;24.90;;;11.48;;
44508;SDS011;30214;52.246;14.408;2023-04-06T05:12:53;21.08;;;11.00;;
44508;SDS011;30214;52.246;14.408;2023-04-06T05:15:20;19.50;;;10.20;;
44508;SDS011;30214;52.246;14.408;2023-04-06T05:17:51;20.45;;;9.88;;
44508;SDS011;30214;52.246;14.408;2023-04-06T05:20:23;18.40;;;9.32;;
44508;SDS011;30214;52.246;14.408;2023-04-06T05:22:51;17.60;;;10.40;;
44508;SDS011;30214;52.246;14.408;2023-04-06T05:25:20;21.48;;;9.65;;
44508;SDS011;30214;52.246;14.408;2023-04-06T05:27:50;21.23;;;10.02;;
44508;SDS011;30214;52.246;14.408;2023-04-06T05:30:27;18.20;;;9.13;;
44508;SDS011;30214;52.246;14.408;2023-04-06T05:32:54;17.23;;;9.07;;
44508;SDS011;30214;52.246;14.408;2023-04-06T05:35:24;20.58;;;9.77;;
44508;SDS011;30214;52.246;14.408;2023-04-06T05:37:55;21.20;;;9.45;;
44508;SDS011;30214;52.246;14.408;2023-04-06T05:40:26;16.05;;;9.40;;
44508;SDS011;30214;52.246;14.408;2023-04-06T05:42:54;20.00;;;9.48;;
44508;SDS011;30214;52.246;14.408;2023-04-06T05:45:23;19.23;;;9.35;;
44508;SDS011;30214;52.246;14.408;2023-04-06T05:47:54;14.52;;;9.32;;
44508;SDS011;30214;52.246;14.408;2023-04-06T05:50:26;17.60;;;8.93;;
44508;SDS011;30214;52.246;14.408;2023-04-06T05:52:55;18.00;;;9.05;;
44508;SDS011;30214;52.246;14.408;2023-04-06T05:55:29;16.25;;;8.30;;
44508;SDS011;30214;52.246;14.408;2023-04-06T05:58:08;15.45;;;8.25;;
44508;SDS011;30214;52.246;14.408;2023-04-06T06:00:39;17.70;;;8.40;;
44508;SDS011;30214;52.246;14.408;2023-04-06T06:03:07;14.23;;;8.15;;
44508;SDS011;30214;52.246;14.408;2023-04-06T06:05:38;16.23;;;8.52;;
44508;SDS011;30214;52.246;14.408;2023-04-06T06:08:10;15.50;;;9.15;;
44508;SDS011;30214;52.246;14.408;2023-04-06T06:10:39;15.27;;;7.97;;
44508;SDS011;30214;52.246;14.408;2023-04-06T06:13:11;14.45;;;7.93;;
44508;SDS011;30214;52.246;14.408;2023-04-06T06:15:39;13.85;;;7.50;;
44508;SDS011;30214;52.246;14.408;2023-04-06T06:18:07;17.40;;;8.55;;
44508;SDS011;30214;52.246;14.408;2023-04-06T06:20:36;15.00;;;8.45;;
44508;SDS011;30214;52.246;14.408;2023-04-06T06:23:07;15.07;;;8.30;;
44508;SDS011;30214;52.246;14.408;2023-04-06T06:25:35;16.08;;;7.97;;
44508;SDS011;30214;52.246;14.408;2023-04-06T06:28:05;14.10;;;8.25;;
44508;SDS011;30214;52.246;14.408;2023-04-06T06:30:35;14.05;;;7.65;;
44508;SDS011;30214;52.246;14.408;2023-04-06T06:33:05;17.30;;;8.55;;
44508;SDS011;30214;52.246;14.408;2023-04-06T06:35:34;14.77;;;7.90;;
44508;SDS011;30214;52.246;14.408;2023-04-06T06:38:04;23.55;;;7.80;;
44508;SDS011;30214;52.246;14.408;2023-04-06T06:40:33;15.70;;;7.93;;
44508;SDS011;30214;52.246;14.408;2023-04-06T06:43:02;13.35;;;7.70;;
44508;SDS011;30214;52.246;14.408;2023-04-06T06:45:35;13.65;;;8.00;;
44508;SDS011;30214;52.246;14.408;2023-04-06T06:48:03;16.42;;;8.40;;
44508;SDS011;30214;52.246;14.408;2023-04-06T06:50:31;12.18;;;7.55;;
44508;SDS011;30214;52.246;14.408;2023-04-06T06:53:00;12.35;;;7.10;;
44508;SDS011;30214;52.246;14.408;2023-04-06T06:55:31;13.55;;;7.20;;
44508;SDS011;30214;52.246;14.408;2023-04-06T06:57:58;13.43;;;7.68;;
44508;SDS011;30214;52.246;14.408;2023-04-06T07:00:26;14.75;;;7.95;;
44508;SDS011;30214;52.246;14.408;2023-04-06T07:02:59;14.73;;;7.82;;
44508;SDS011;30214;52.246;14.408;2023-04-06T07:05:27;14.95;;;7.88;;
44508;SDS011;30214;52.246;14.408;2023-04-06T07:07:57;15.68;;;8.32;;
44508;SDS011;30214;52.246;14.408;2023-04-06T07:10:25;13.68;;;7.55;;
44508;SDS011;30214;52.246;14.408;2023-04-06T07:12:53;17.50;;;7.82;;
44508;SDS011;30214;52.246;14.408;2023-04-06T07:15:20;13.82;;;7.43;;
44508;SDS011;30214;52.246;14.408;2023-04-06T07:17:48;12.95;;;6.18;;
44508;SDS011;30214;52.246;14.408;2023-04-06T07:20:19;7.97;;;5.25;;
44508;SDS011;30214;52.246;14.408;2023-04-06T07:22:46;11.20;;;5.55;;
44508;SDS011;30214;52.246;14.408;2023-04-06T07:25:14;9.85;;;5.63;;
44508;SDS011;30214;52.246;14.408;2023-04-06T07:27:42;10.45;;;5.15;;
44508;SDS011;30214;52.246;14.408;2023-04-06T07:30:10;11.05;;;5.40;;
44508;SDS011;30214;52.246;14.408;2023-04-06T07:32:39;13.48;;;5.45;;
44508;SDS011;30214;52.246;14.408;2023-04-06T07:35:07;9.70;;;4.72;;
44508;SDS011;30214;52.246;14.408;2023-04-06T07:37:36;8.52;;;4.15;;
44508;SDS011;30214;52.246;14.408;2023-04-06T07:40:03;10.98;;;4.90;;
44508;SDS011;30214;52.246;14.408;2023-04-06T07:42:33;10.73;;;4.32;;
44508;SDS011;30214;52.246;14.408;2023-04-06T07:45:02;13.18;;;6.63;;
44508;SDS011;30214;52.246;14.408;2023-04-06T07:47:31;12.77;;;6.65;;
44508;SDS011;30214;52.246;14.408;2023-04-06T07:49:59;13.05;;;6.50;;
44508;SDS011;30214;52.246;14.408;2023-04-06T07:52:26;12.15;;;6.80;;
44508;SDS011;30214;52.246;14.408;2023-04-06T07:54:54;9.85;;;6.20;;
44508;SDS011;30214;52.246;14.408;2023-04-06T07:57:22;11.90;;;6.00;;
44508;SDS011;30214;52.246;14.408;2023-04-06T07:59:49;10.50;;;5.40;;
44508;SDS011;30214;52.246;14.408;2023-04-06T08:02:16;11.45;;;5.70;;
44508;SDS011;30214;52.246;14.408;2023-04-06T08:04:43;14.85;;;6.53;;
44508;SDS011;30214;52.246;14.408;2023-04-06T08:07:11;10.68;;;5.68;;
44508;SDS011;30214;52.246;14.408;2023-04-06T08:09:38;11.30;;;5.57;;
44508;SDS011;30214;52.246;14.408;2023-04-06T08:12:07;10.52;;;5.30;;
44508;SDS011;30214;52.246;14.408;2023-04-06T08:14:34;11.23;;;5.53;;
44508;SDS011;30214;52.246;14.408;2023-04-06T08:17:01;10.07;;;5.45;;
44508;SDS011;30214;52.246;14.408;2023-04-06T08:19:28;8.82;;;5.15;;
44508;SDS011;30214;52.246;14.408;2023-04-06T08:21:55;8.98;;;5.13;;
44508;SDS011;30214;52.246;14.408;2023-04-06T08:24:22;9.50;;;4.90;;
44508;SDS011;30214;52.246;14.408;2023-04-06T08:26:49;12.23;;;5.57;;
44508;SDS011;30214;52.246;14.408;2023-04-06T08:29:18;11.50;;;5.72;;
44508;SDS011;30214;52.246;14.408;2023-04-06T08:31:46;8.13;;;4.75;;
44508;SDS011;30214;52.246;14.408;2023-04-06T08:34:13;8.43;;;4.72;;
44508;SDS011;30214;52.246;14.408;2023-04-06T08:36:40;8.95;;;4.70;;
44508;SDS011;30214;52.246;14.408;2023-04-06T08:39:07;10.93;;;5.65;;
44508;SDS011;30214;52.246;14.408;2023-04-06T08:41:35;11.23;;;5.78;;
44508;SDS011;30214;52.246;14.408;2023-04-06T08:44:02;11.25;;;4.95;;
44508;SDS011;30214;52.246;14.408;2023-04-06T08:46:32;9.07;;;4.72;;
44508;SDS011;30214;52.246;14.408;2023-04-06T08:48:59;7.65;;;4.57;;
44508;SDS011;30214;52.246;14.408;2023-04-06T08:51:28;11.95;;;5.50;;
44508;SDS011;30214;52.246;14.408;2023-04-06T08:53:56;12.18;;;5.55;;
44508;SDS011;30214;52.246;14.408;2023-04-06T08:56:25;10.25;;;5.15;;
44508;SDS011;30214;52.246;14.408;2023-04-06T08:58:54;8.20;;;4.22;;
44508;SDS011;30214;52.246;14.408;2023-04-06T09:01:23;9.23;;;4.78;;
44508;SDS011;30214;52.246;14.408;2023-04-06T09:03:55;11.65;;;5.47;;
44508;SDS011;30214;52.246;14.408;2023-04-06T09:06:24;10.68;;;5.45;;
44508;SDS011;30214;52.246;14.408;2023-04-06T09:08:53;9.57;;;4.88;;
44508;SDS011;30214;52.246;14.408;2023-04-06T09:11:22;11.93;;;5.00;;
44508;SDS011;30214;52.246;14.408;2023-04-06T09:13:50;9.85;;;4.57;;
44508;SDS011;30214;52.246;14.408;2023-04-06T09:16:21;8.30;;;4.60;;
44508;SDS011;30214;52.246;14.408;2023-04-06T09:18:50;9.55;;;4.55;;
44508;SDS011;30214;52.246;14.408;2023-04-06T09:21:19;6.97;;;3.97;;
44508;SDS011;30214;52.246;14.408;2023-04-06T09:23:46;13.68;;;4.32;;
44508;SDS011;30214;52.246;14.408;2023-04-06T09:26:14;6.40;;;3.03;;
44508;SDS011;30214;52.246;14.408;2023-04-06T09:28:46;8.02;;;3.63;;
44508;SDS011;30214;52.246;14.408;2023-04-06T09:31:16;9.18;;;3.97;;
44508;SDS011;30214;52.246;14.408;2023-04-06T09:33:48;8.02;;;3.60;;
44508;SDS011;30214;52.246;14.408;2023-04-06T09:36:18;6.68;;;3.47;;
44508;SDS011;30214;52.246;14.408;2023-04-06T09:38:53;9.48;;;4.30;;
44508;SDS011;30214;52.246;14.408;2023-04-06T09:41:22;5.60;;;3.08;;
44508;SDS011;30214;52.246;14.408;2023-04-06T09:44:01;5.50;;;3.05;;
44508;SDS011;30214;52.246;14.408;2023-04-06T09:46:31;9.32;;;3.63;;
44508;SDS011;30214;52.246;14.408;2023-04-06T09:49:00;6.80;;;3.20;;
44508;SDS011;30214;52.246;14.408;2023-04-06T09:51:31;4.60;;;2.83;;
44508;SDS011;30214;52.246;14.408;2023-04-06T09:56:33;5.70;;;2.88;;
44508;SDS011;30214;52.246;14.408;2023-04-06T09:59:13;6.82;;;3.30;;
44508;SDS011;30214;52.246;14.408;2023-04-06T10:01:45;7.40;;;3.10;;
44508;SDS011;30214;52.246;14.408;2023-04-06T10:04:19;6.07;;;3.03;;
44508;SDS011;30214;52.246;14.408;2023-04-06T10:06:59;5.93;;;3.03;;
44508;SDS011;30214;52.246;14.408;2023-04-06T10:09:28;5.63;;;2.60;;
44508;SDS011;30214;52.246;14.408;2023-04-06T10:12:01;5.30;;;2.80;;
44508;SDS011;30214;52.246;14.408;2023-04-06T10:14:30;6.35;;;3.10;;
44508;SDS011;30214;52.246;14.408;2023-04-06T10:17:00;5.63;;;3.17;;
44508;SDS011;30214;52.246;14.408;2023-04-06T10:19:32;7.03;;;3.80;;
44508;SDS011;30214;52.246;14.408;2023-04-06T10:22:10;5.13;;;3.05;;
44508;SDS011;30214;52.246;14.408;2023-04-06T10:24:45;6.15;;;3.17;;
44508;SDS011;30214;52.246;14.408;2023-04-06T10:27:13;8.02;;;2.72;;
44508;SDS011;30214;52.246;14.408;2023-04-06T10:29:42;8.52;;;2.90;;
44508;SDS011;30214;52.246;14.408;2023-04-06T10:32:14;9.00;;;3.53;;
44508;SDS011;30214;52.246;14.408;2023-04-06T10:34:41;7.78;;;3.75;;
44508;SDS011;30214;52.246;14.408;2023-04-06T10:37:14;6.95;;;3.50;;
44508;SDS011;30214;52.246;14.408;2023-04-06T10:39:47;9.48;;;3.47;;
44508;SDS011;30214;52.246;14.408;2023-04-06T10:42:23;8.13;;;3.45;;
44508;SDS011;30214;52.246;14.408;2023-04-06T10:44:51;8.80;;;3.40;;
44508;SDS011;30214;52.246;14.408;2023-04-06T10:47:19;7.20;;;3.42;;
44508;SDS011;30214;52.246;14.408;2023-04-06T10:49:46;5.80;;;3.30;;
44508;SDS011;30214;52.246;14.408;2023-04-06T10:52:14;6.43;;;3.53;;
44508;SDS011;30214;52.246;14.408;2023-04-06T10:54:42;7.38;;;3.05;;
44508;SDS011;30214;52.246;14.408;2023-04-06T10:57:10;8.23;;;3.28;;
44508;SDS011;30214;52.246;14.408;2023-04-06T10:59:42;7.35;;;3.67;;
44508;SDS011;30214;52.246;14.408;2023-04-06T11:02:18;7.30;;;3.58;;
44508;SDS011;30214;52.246;14.408;2023-04-06T11:04:53;6.13;;;3.60;;
44508;SDS011;30214;52.246;14.408;2023-04-06T11:07:24;5.57;;;3.03;;
44508;SDS011;30214;52.246;14.408;2023-04-06T11:09:54;6.18;;;2.60;;
44508;SDS011;30214;52.246;14.408;2023-04-06T11:12:22;6.88;;;2.95;;
44508;SDS011;30214;52.246;14.408;2023-04-06T11:14:53;4.90;;;2.75;;
44508;SDS011;30214;52.246;14.408;2023-04-06T11:17:30;6.22;;;2.72;;
44508;SDS011;30214;52.246;14.408;2023-04-06T11:19:59;4.75;;;2.78;;
44508;SDS011;30214;52.246;14.408;2023-04-06T11:22:29;3.55;;;1.92;;
44508;SDS011;30214;52.246;14.408;2023-04-06T11:25:04;3.22;;;1.90;;
44508;SDS011;30214;52.246;14.408;2023-04-06T11:27:33;4.57;;;2.38;;
44508;SDS011;30214;52.246;14.408;2023-04-06T11:30:00;4.47;;;2.28;;
44508;SDS011;30214;52.246;14.408;2023-04-06T11:32:28;11.52;;;4.45;;
44508;SDS011;30214;52.246;14.408;2023-04-06T11:34:57;9.13;;;4.13;;
44508;SDS011;30214;52.246;14.408;2023-04-06T11:37:26;7.15;;;3.88;;
44508;SDS011;30214;52.246;14.408;2023-04-06T11:39:55;9.38;;;4.22;;
44508;SDS011;30214;52.246;14.408;2023-04-06T11:42:22;6.78;;;3.55;;
44508;SDS011;30214;52.246;14.408;2023-04-06T11:44:53;8.45;;;4.20;;
44508;SDS011;30214;52.246;14.408;2023-04-06T11:47:28;7.95;;;3.70;;
44508;SDS011;30214;52.246;14.408;2023-04-06T11:50:04;8.52;;;3.65;;
44508;SDS011;30214;52.246;14.408;2023-04-06T11:52:34;8.95;;;3.85;;
44508;SDS011;30214;52.246;14.408;2023-04-06T11:55:10;8.30;;;3.90;;
44508;SDS011;30214;52.246;14.408;2023-04-06T11:57:39;7.70;;;3.55;;
44508;SDS011;30214;52.246;14.408;2023-04-06T12:00:07;5.97;;;3.65;;
44508;SDS011;30214;52.246;14.408;2023-04-06T12:02:35;6.90;;;3.53;;
44508;SDS011;30214;52.246;14.408;2023-04-06T12:05:03;6.75;;;3.60;;
44508;SDS011;30214;52.246;14.408;2023-04-06T12:07:32;7.03;;;3.47;;
44508;SDS011;30214;52.246;14.408;2023-04-06T12:10:01;6.20;;;3.30;;
44508;SDS011;30214;52.246;14.408;2023-04-06T12:12:30;7.75;;;3.53;;
44508;SDS011;30214;52.246;14.408;2023-04-06T12:14:58;5.13;;;3.08;;
44508;SDS011;30214;52.246;14.408;2023-04-06T12:17:25;7.65;;;3.53;;
44508;SDS011;30214;52.246;14.408;2023-04-06T12:19:52;7.72;;;2.92;;
44508;SDS011;30214;52.246;14.408;2023-04-06T12:22:20;5.28;;;2.80;;
44508;SDS011;30214;52.246;14.408;2023-04-06T12:24:48;7.40;;;2.90;;
44508;SDS011;30214;52.246;14.408;2023-04-06T12:27:15;5.65;;;2.78;;
44508;SDS011;30214;52.246;14.408;2023-04-06T12:29:42;5.18;;;2.67;;
44508;SDS011;30214;52.246;14.408;2023-04-06T12:32:10;4.18;;;2.33;;
44508;SDS011;30214;52.246;14.408;2023-04-06T12:34:37;3.78;;;2.20;;
44508;SDS011;30214;52.246;14.408;2023-04-06T12:37:04;5.00;;;2.38;;
44508;SDS011;30214;52.246;14.408;2023-04-06T12:39:32;5.32;;;2.30;;
44508;SDS011;30214;52.246;14.408;2023-04-06T12:42:01;5.70;;;2.92;;
44508;SDS011;30214;52.246;14.408;2023-04-06T12:44:29;5.40;;;3.30;;
44508;SDS011;30214;52.246;14.408;2023-04-06T12:46:56;7.13;;;3.53;;
44508;SDS011;30214;52.246;14.408;2023-04-06T12:49:23;7.55;;;3.78;;
44508;SDS011;30214;52.246;14.408;2023-04-06T12:51:50;7.50;;;3.55;;
44508;SDS011;30214;52.246;14.408;2023-04-06T12:54:18;6.13;;;3.58;;
44508;SDS011;30214;52.246;14.408;2023-04-06T12:56:45;6.80;;;3.75;;
44508;SDS011;30214;52.246;14.408;2023-04-06T12:59:13;6.72;;;3.30;;
44508;SDS011;30214;52.246;14.408;2023-04-06T13:01:41;9.23;;;4.05;;
44508;SDS011;30214;52.246;14.408;2023-04-06T13:04:09;5.45;;;3.50;;
44508;SDS011;30214;52.246;14.408;2023-04-06T13:06:36;10.10;;;3.72;;
44508;SDS011;30214;52.246;14.408;2023-04-06T13:09:03;7.55;;;3.30;;
44508;SDS011;30214;52.246;14.408;2023-04-06T13:11:32;6.90;;;3.85;;
44508;SDS011;30214;52.246;14.408;2023-04-06T13:13:59;6.32;;;3.83;;
44508;SDS011;30214;52.246;14.408;2023-04-06T13:16:28;7.65;;;3.95;;
44508;SDS011;30214;52.246;14.408;2023-04-06T13:18:56;5.88;;;3.80;;
44508;SDS011;30214;52.246;14.408;2023-04-06T13:21:23;6.95;;;3.67;;
44508;SDS011;30214;52.246;14.408;2023-04-06T13:23:50;6.18;;;4.00;;
44508;SDS011;30214;52.246;14.408;2023-04-06T13:26:17;9.80;;;6.07;;
44508;SDS011;30214;52.246;14.408;2023-04-06T13:28:45;7.10;;;4.15;;
44508;SDS011;30214;52.246;14.408;2023-04-06T13:31:12;8.40;;;4.18;;
44508;SDS011;30214;52.246;14.408;2023-04-06T13:33:40;7.28;;;4.07;;
44508;SDS011;30214;52.246;14.408;2023-04-06T13:36:08;7.25;;;4.15;;
44508;SDS011;30214;52.246;14.408;2023-04-06T13:38:35;11.65;;;4.45;;
44508;SDS011;30214;52.246;14.408;2023-04-06T13:41:04;7.50;;;3.58;;
44508;SDS011;30214;52.246;14.408;2023-04-06T13:43:32;7.05;;;3.70;;
44508;SDS011;30214;52.246;14.408;2023-04-06T13:45:59;6.97;;;3.47;;
44508;SDS011;30214;52.246;14.408;2023-04-06T13:48:28;7.95;;;3.42;;
44508;SDS011;30214;52.246;14.408;2023-04-06T13:50:56;9.48;;;3.30;;
44508;SDS011;30214;52.246;14.408;2023-04-06T13:53:24;13.00;;;6.55;;
44508;SDS011;30214;52.246;14.408;2023-04-06T13:55:54;8.70;;;4.53;;
44508;SDS011;30214;52.246;14.408;2023-04-06T13:58:22;9.82;;;4.95;;
44508;SDS011;30214;52.246;14.408;2023-04-06T14:00:49;11.27;;;5.30;;
44508;SDS011;30214;52.246;14.408;2023-04-06T14:03:18;9.10;;;4.97;;
44508;SDS011;30214;52.246;14.408;2023-04-06T14:05:47;17.73;;;8.38;;
44508;SDS011;30214;52.246;14.408;2023-04-06T14:08:16;14.27;;;6.05;;
44508;SDS011;30214;52.246;14.408;2023-04-06T14:10:43;12.38;;;5.05;;
44508;SDS011;30214;52.246;14.408;2023-04-06T14:13:11;9.40;;;4.85;;
44508;SDS011;30214;52.246;14.408;2023-04-06T14:15:38;7.07;;;3.97;;
44508;SDS011;30214;52.246;14.408;2023-04-06T14:18:05;5.72;;;3.00;;
44508;SDS011;30214;52.246;14.408;2023-04-06T14:20:33;5.65;;;3.03;;
44508;SDS011;30214;52.246;14.408;2023-04-06T14:23:02;5.32;;;2.97;;
44508;SDS011;30214;52.246;14.408;2023-04-06T14:25:32;7.90;;;3.33;;
44508;SDS011;30214;52.246;14.408;2023-04-06T14:28:00;6.43;;;3.58;;
44508;SDS011;30214;52.246;14.408;2023-04-06T14:30:27;8.18;;;3.78;;
44508;SDS011;30214;52.246;14.408;2023-04-06T14:32:56;7.40;;;3.70;;
44508;SDS011;30214;52.246;14.408;2023-04-06T14:35:24;7.28;;;3.40;;
44508;SDS011;30214;52.246;14.408;2023-04-06T14:37:53;7.63;;;3.45;;
44508;SDS011;30214;52.246;14.408;2023-04-06T14:40:21;5.68;;;3.17;;
44508;SDS011;30214;52.246;14.408;2023-04-06T14:42:50;4.68;;;2.78;;
44508;SDS011;30214;52.246;14.408;2023-04-06T14:45:18;4.70;;;2.80;;
44508;SDS011;30214;52.246;14.408;2023-04-06T14:47:46;7.25;;;3.00;;
44508;SDS011;30214;52.246;14.408;2023-04-06T14:50:14;5.15;;;2.78;;
44508;SDS011;30214;52.246;14.408;2023-04-06T14:52:41;6.20;;;3.50;;
44508;SDS011;30214;52.246;14.408;2023-04-06T14:55:08;5.50;;;2.90;;
44508;SDS011;30214;52.246;14.408;2023-04-06T14:57:36;6.82;;;3.85;;